This is the latest recevied weather packets stored in our database for station/object SP3ZBZ-13. If no packets are shown the sender has not sent any weather packets the latest 10 day(s).
| Time | Temp. | Humidity | Pressure | Rain* | Wind** | Luminosity | Snow |
|---|---|---|---|---|---|---|---|
| 1777991640 | 12.78° C | 88% | 1004.8 hPa | 0.25 mm | - | 69 W/m² | - |
| 1777990740 | 12.78° C | 86% | 1004.7 hPa | 0.25 mm | - | 81 W/m² | - |
| 1777989838 | 12.78° C | 88% | 1004.9 hPa | 0.25 mm | - | 80 W/m² | - |
| 1777988937 | 12.78° C | 89% | 1005 hPa | 0.25 mm | - | 65 W/m² | - |
| 1777988036 | 12.78° C | 89% | 1005.1 hPa | 0.25 mm | - | 76 W/m² | - |
| 1777987135 | 12.78° C | 88% | 1005.2 hPa | 0.51 mm | - | 87 W/m² | - |
| 1777986234 | 13.33° C | 85% | 1005.2 hPa | 0.51 mm | - | 38 W/m² | - |
| 1777985334 | 13.33° C | 84% | 1005.2 hPa | 1.02 mm | - | 84 W/m² | - |
| 1777984432 | 13.33° C | 83% | 1005.2 hPa | 0.76 mm | - | 100 W/m² | - |
| 1777983532 | 13.89° C | 84% | 1005.6 hPa | 0.51 mm | - | 106 W/m² | - |
| 1777982631 | 14.44° C | 81% | 1005.5 hPa | - | - | 114 W/m² | - |
| 1777981730 | 14.44° C | 79% | 1005.4 hPa | - | - | 188 W/m² | - |
| 1777980829 | 14.44° C | 78% | 1005.5 hPa | - | - | 153 W/m² | - |
| 1777979928 | 14.44° C | 77% | 1005.5 hPa | - | - | 179 W/m² | - |
| 1777979027 | 15° C | 76% | 1005.8 hPa | - | - | 64 W/m² | - |
| 1777978126 | 15° C | 74% | 1005.8 hPa | - | - | 132 W/m² | - |
| 1777977225 | 15° C | 74% | 1005.7 hPa | - | - | 220 W/m² | - |
| 1777976325 | 14.44° C | 78% | 1005.8 hPa | 0.25 mm | - | 222 W/m² | - |
| 1777975424 | 14.44° C | 78% | 1005.8 hPa | 0.25 mm | - | 79 W/m² | - |
| 1777974522 | 14.44° C | 75% | 1005.9 hPa | 0.25 mm | - | 113 W/m² | - |
| 1777973621 | 15° C | 76% | 1005.8 hPa | - | - | 95 W/m² | - |
| 1777972720 | 14.44° C | 77% | 1005.6 hPa | - | - | 97 W/m² | - |
| 1777971819 | 14.44° C | 75% | 1005.5 hPa | - | - | 107 W/m² | - |
| 1777970918 | 14.44° C | 75% | 1005.3 hPa | - | - | 108 W/m² | - |
| 1777970017 | 13.89° C | 76% | 1005.1 hPa | - | - | 152 W/m² | - |
* Rain latest hour (hover to see other rain measurements)
** Current wind speed in m/s (hover to see current wind gust speed)